createdAt,value
2023-02-11T10:54:19.359Z,39.33
2023-02-11T10:56:45.809Z,40.65
2023-02-11T10:59:32.741Z,40.92
2023-02-11T11:02:02.184Z,40.22
2023-02-11T11:04:42.484Z,40.28
2023-02-11T11:07:15.885Z,43.05
2023-02-11T11:09:45.550Z,41.58
2023-02-11T11:12:34.986Z,44.72
2023-02-11T11:15:40.129Z,39.78
2023-02-11T11:18:23.037Z,41.55
2023-02-11T11:21:02.075Z,43.38
2023-02-11T11:23:30.385Z,42.55
2023-02-11T11:26:07.342Z,41.03
2023-02-11T11:28:42.701Z,45.63
2023-02-11T11:31:16.007Z,42.55
2023-02-11T11:33:46.957Z,43.65
2023-02-11T11:36:20.108Z,46.38
2023-02-11T11:38:58.046Z,42.35
2023-02-11T11:41:30.933Z,42.80
2023-02-11T11:44:30.077Z,44.65
2023-02-11T11:47:11.606Z,41.25
2023-02-11T11:50:11.752Z,46.08
2023-02-11T11:52:53.730Z,44.15
2023-02-11T11:55:31.305Z,41.78
2023-02-11T11:57:58.465Z,44.60
2023-02-11T12:00:41.150Z,44.22
2023-02-11T12:03:33.542Z,46.17
2023-02-11T12:06:50.543Z,45.40
2023-02-11T12:09:30.766Z,46.78
2023-02-11T12:11:57.034Z,44.42
2023-02-11T12:14:42.184Z,46.30
2023-02-11T12:17:20.296Z,45.03
2023-02-11T12:20:18.181Z,45.28
2023-02-11T12:22:50.864Z,48.25
2023-02-11T12:25:38.995Z,46.55
2023-02-11T12:28:50.152Z,49.10
2023-02-11T12:31:51.631Z,45.92
2023-02-11T12:34:38.431Z,46.50
2023-02-11T12:37:23.526Z,47.72
2023-02-11T12:39:49.775Z,48.22
2023-02-11T12:43:01.489Z,48.08
2023-02-11T12:45:38.569Z,46.88
2023-02-11T12:48:35.641Z,47.00
2023-02-11T12:51:27.997Z,47.17
2023-02-11T12:54:16.213Z,48.72
2023-02-11T12:57:04.078Z,47.65
2023-02-11T12:59:57.113Z,48.28
2023-02-11T13:02:27.430Z,47.97
2023-02-11T13:04:57.597Z,48.10
2023-02-11T13:07:56.050Z,48.25
2023-02-11T13:10:32.400Z,49.20
2023-02-11T13:13:19.090Z,48.75
2023-02-11T13:16:08.171Z,47.30
2023-02-11T13:19:15.391Z,46.42
2023-02-11T13:22:23.779Z,45.80
2023-02-11T13:25:15.641Z,46.03
2023-02-11T13:27:58.897Z,46.85
2023-02-11T13:30:35.474Z,46.45
2023-02-11T13:33:04.201Z,46.10
2023-02-11T13:35:47.692Z,45.65
2023-02-11T13:38:19.615Z,46.05
2023-02-11T13:41:06.068Z,46.05
2023-02-11T13:43:36.527Z,45.42
2023-02-11T13:46:05.796Z,47.47
2023-02-11T13:48:47.156Z,44.85
2023-02-11T13:51:16.355Z,43.38
2023-02-11T13:53:56.385Z,43.70
2023-02-11T13:56:33.009Z,42.28
2023-02-11T13:59:02.378Z,41.88
2023-02-11T14:02:07.083Z,41.22
2023-02-11T14:04:52.294Z,41.45
2023-02-11T14:07:50.074Z,41.45
2023-02-11T14:10:41.125Z,40.35
2023-02-11T14:13:26.905Z,40.67
2023-02-11T14:16:37.903Z,39.40
2023-02-11T14:19:05.896Z,36.90
2023-02-11T14:21:36.504Z,43.03
2023-02-11T14:24:04.657Z,40.63
2023-02-11T14:26:47.144Z,42.10
2023-02-11T14:29:42.325Z,41.35
2023-02-11T14:32:38.141Z,38.78
2023-02-11T14:35:33.448Z,38.22
2023-02-11T14:38:24.264Z,38.78
2023-02-11T14:41:11.109Z,41.60
2023-02-11T14:43:49.873Z,39.97
2023-02-11T14:46:20.886Z,39.53
2023-02-11T14:48:50.798Z,42.03
2023-02-11T14:51:37.427Z,41.08
2023-02-11T14:54:16.925Z,41.55
2023-02-11T14:56:50.847Z,41.42
2023-02-11T14:59:22.851Z,44.28
2023-02-11T15:01:51.251Z,45.63
2023-02-11T15:04:33.860Z,46.28
2023-02-11T15:07:07.362Z,44.15
2023-02-11T15:09:52.619Z,46.72
2023-02-11T15:12:36.680Z,46.42
2023-02-11T15:15:03.177Z,43.13
2023-02-11T15:17:32.248Z,44.58
2023-02-11T15:20:01.952Z,44.67
2023-02-11T15:22:32.940Z,45.22
2023-02-11T15:25:03.794Z,43.90
2023-02-11T15:27:42.292Z,43.42
2023-02-11T15:32:59.738Z,41.47
2023-02-11T15:35:29.076Z,47.92
2023-02-11T15:37:57.699Z,44.47
2023-02-11T15:43:05.954Z,41.97
2023-02-11T15:45:36.421Z,45.08
2023-02-11T15:48:21.563Z,44.50
2023-02-11T15:50:58.611Z,43.25
2023-02-11T15:53:40.863Z,43.20
2023-02-11T15:56:25.144Z,43.40
2023-02-11T15:58:55.410Z,42.47
2023-02-11T16:01:37.021Z,41.42
2023-02-11T16:04:05.304Z,40.58
2023-02-11T16:06:40.531Z,40.97
2023-02-11T16:09:12.946Z,38.35
2023-02-11T16:11:48.581Z,41.75
2023-02-11T16:14:35.736Z,37.67
2023-02-11T16:17:11.993Z,37.63
2023-02-11T16:19:49.173Z,37.83
2023-02-11T16:22:22.871Z,36.45
2023-02-11T16:24:53.148Z,36.97
2023-02-11T16:27:40.675Z,37.88
2023-02-11T16:30:28.918Z,36.22
2023-02-11T16:33:00.160Z,34.17
2023-02-11T16:35:26.523Z,36.88
2023-02-11T16:37:53.005Z,37.20
2023-02-11T16:40:19.703Z,34.53
2023-02-11T16:42:46.125Z,36.20
2023-02-11T16:45:13.522Z,34.95
2023-02-11T16:47:41.938Z,36.60
2023-02-11T16:50:10.948Z,36.22
2023-02-11T16:52:38.049Z,35.75
2023-02-11T16:55:05.528Z,37.97
2023-02-11T16:57:33.305Z,37.67
2023-02-11T16:59:59.917Z,38.92
2023-02-11T17:02:30.279Z,41.15
2023-02-11T17:05:00.650Z,39.78
2023-02-11T17:07:27.661Z,43.45
2023-02-11T17:09:54.300Z,41.42
2023-02-11T17:12:21.749Z,42.25
2023-02-11T17:14:48.169Z,41.75
2023-02-11T17:17:14.484Z,39.35
2023-02-11T17:19:40.790Z,39.15
2023-02-11T17:22:07.290Z,41.67
2023-02-11T17:24:34.005Z,41.58
2023-02-11T17:27:00.421Z,42.60
2023-02-11T17:29:27.285Z,41.90
2023-02-11T17:31:54.365Z,42.30
2023-02-11T17:34:21.978Z,40.75
2023-02-11T17:36:49.089Z,42.53
2023-02-11T17:39:16.379Z,39.95
2023-02-11T17:41:42.791Z,40.38
2023-02-11T17:44:12.564Z,36.05
2023-02-11T17:46:39.107Z,40.78
2023-02-11T17:49:05.823Z,39.17
2023-02-11T17:51:38.555Z,40.35
2023-02-11T17:54:12.003Z,40.67
2023-02-11T17:56:39.051Z,43.47
2023-02-11T17:59:07.545Z,42.05
2023-02-11T18:01:35.261Z,43.78
2023-02-11T18:04:04.540Z,40.80
2023-02-11T18:06:31.485Z,73.63
2023-02-11T18:08:59.669Z,51.60
2023-02-11T18:11:28.028Z,45.42
2023-02-11T18:13:54.624Z,42.17
2023-02-11T18:16:22.477Z,41.97
2023-02-11T18:18:49.984Z,41.90
2023-02-11T18:21:19.984Z,42.05
2023-02-11T18:23:47.273Z,41.90
2023-02-11T18:26:15.278Z,42.45
2023-02-11T18:28:45.544Z,40.92
2023-02-11T18:31:13.817Z,40.70
2023-02-11T18:33:42.097Z,41.58
2023-02-11T18:36:18.933Z,38.92
2023-02-11T18:38:45.571Z,39.92
2023-02-11T18:41:13.297Z,40.35
2023-02-11T18:43:40.259Z,41.47
2023-02-11T18:46:09.169Z,39.00
2023-02-11T18:48:36.187Z,39.20
2023-02-11T18:51:02.600Z,38.10
2023-02-11T18:53:28.987Z,39.60
2023-02-11T18:55:55.850Z,43.47
2023-02-11T18:58:22.452Z,41.63
2023-02-11T19:00:49.958Z,42.35
2023-02-11T19:03:17.423Z,43.58
2023-02-11T19:05:45.941Z,41.58
2023-02-11T19:10:42.667Z,38.28
2023-02-11T19:13:09.789Z,41.38
2023-02-11T19:15:44.640Z,41.78
2023-02-11T19:18:13.190Z,41.25
2023-02-11T19:23:06.920Z,41.22
2023-02-11T19:25:33.957Z,40.97
2023-02-11T19:28:01.772Z,42.22
2023-02-11T19:30:28.131Z,40.92
2023-02-11T19:32:57.028Z,44.50
2023-02-11T19:35:24.314Z,42.53
2023-02-11T19:37:50.655Z,45.00
2023-02-11T19:40:17.817Z,43.55
2023-02-11T19:42:45.537Z,42.00
2023-02-11T19:45:11.846Z,41.75
2023-02-11T19:47:38.235Z,43.25
2023-02-11T19:50:05.610Z,41.15
2023-02-11T19:52:32.181Z,43.05
2023-02-11T19:54:59.593Z,42.28
2023-02-11T19:57:26.025Z,47.33
2023-02-11T19:59:54.681Z,44.78
2023-02-11T20:02:21.113Z,42.00
2023-02-11T20:04:47.786Z,44.10
2023-02-11T20:07:14.388Z,44.47
2023-02-11T20:09:43.488Z,42.90
2023-02-11T20:12:10.751Z,45.00
2023-02-11T20:14:37.187Z,43.40
2023-02-11T20:17:03.610Z,44.47
2023-02-11T20:19:30.836Z,44.78
2023-02-11T20:21:57.523Z,42.90
2023-02-11T20:24:25.132Z,45.15
2023-02-11T20:26:55.263Z,45.53
2023-02-11T20:29:22.232Z,45.08
2023-02-11T20:31:50.058Z,45.25
2023-02-11T20:34:17.837Z,43.85
2023-02-11T20:36:51.338Z,47.22
2023-02-11T20:39:18.445Z,46.25
2023-02-11T20:41:46.127Z,46.50
2023-02-11T20:44:14.277Z,46.70
2023-02-11T20:46:48.309Z,50.20
2023-02-11T20:49:20.707Z,51.40
2023-02-11T20:51:47.722Z,48.05
2023-02-11T20:54:17.101Z,49.50
2023-02-11T20:56:46.766Z,50.33
2023-02-11T20:59:14.319Z,49.17
2023-02-11T21:01:44.318Z,48.72
2023-02-11T21:04:14.153Z,49.15
2023-02-11T21:06:44.086Z,46.72
2023-02-11T21:09:14.639Z,48.78
2023-02-11T21:11:41.479Z,50.08
2023-02-11T21:14:09.928Z,49.25
2023-02-11T21:16:36.475Z,49.72
2023-02-11T21:19:05.756Z,47.55
2023-02-11T21:21:32.566Z,50.13
2023-02-11T21:24:01.608Z,49.55
2023-02-11T21:26:28.063Z,49.72
2023-02-11T21:28:55.169Z,51.13
2023-02-11T21:31:27.154Z,51.08
2023-02-11T21:33:56.586Z,51.55
2023-02-11T21:36:24.321Z,52.67
2023-02-11T21:38:51.072Z,53.70
2023-02-11T21:41:19.116Z,53.20
2023-02-11T21:43:45.826Z,52.13
2023-02-11T21:46:15.160Z,53.92
2023-02-11T21:48:42.090Z,51.20
2023-02-11T21:51:13.330Z,52.03
2023-02-11T21:53:39.975Z,52.65
2023-02-11T21:56:09.665Z,51.97
2023-02-11T21:58:36.890Z,55.30
2023-02-11T22:01:11.914Z,53.38
2023-02-11T22:03:38.431Z,52.00
2023-02-11T22:06:16.281Z,54.03
2023-02-11T22:08:42.720Z,53.33
2023-02-11T22:11:12.442Z,51.83
2023-02-11T22:13:39.604Z,52.55
2023-02-11T22:16:11.931Z,50.72
2023-02-11T22:18:38.881Z,49.15
2023-02-11T22:21:11.517Z,51.33
2023-02-11T22:23:39.716Z,48.50
2023-02-11T22:26:10.770Z,50.30
2023-02-11T22:28:40.423Z,48.38
2023-02-11T22:31:19.055Z,49.53
2023-02-11T22:33:46.323Z,49.10
2023-02-11T22:36:18.639Z,50.13
2023-02-11T22:38:45.336Z,50.78
2023-02-11T22:41:12.285Z,49.45
2023-02-11T22:43:39.513Z,50.30
2023-02-11T22:46:07.629Z,48.90
2023-02-11T22:48:35.188Z,49.38
2023-02-11T22:51:12.854Z,47.80
2023-02-11T22:53:39.213Z,49.25
2023-02-11T22:56:15.001Z,47.55
2023-02-11T22:58:41.769Z,47.25
2023-02-11T23:01:08.166Z,47.17
2023-02-11T23:03:34.790Z,46.95
2023-02-11T23:06:02.267Z,47.45
2023-02-11T23:08:31.032Z,47.22
2023-02-11T23:11:05.713Z,46.45
2023-02-11T23:13:34.903Z,46.08
2023-02-11T23:16:06.823Z,45.55
2023-02-11T23:18:34.950Z,45.92
2023-02-11T23:21:13.576Z,45.03
2023-02-11T23:23:40.215Z,44.35
2023-02-11T23:26:10.437Z,45.80
2023-02-11T23:28:37.058Z,45.75
2023-02-11T23:31:17.062Z,46.35
2023-02-11T23:33:44.171Z,43.45
2023-02-11T23:36:10.619Z,45.38
2023-02-11T23:38:37.116Z,41.55
2023-02-11T23:41:04.084Z,43.60
2023-02-11T23:43:31.074Z,45.42
2023-02-11T23:45:57.858Z,44.22
2023-02-11T23:48:24.559Z,45.38
2023-02-11T23:50:50.918Z,43.50
2023-02-11T23:53:17.412Z,41.90
2023-02-11T23:55:45.623Z,43.53
2023-02-11T23:58:13.987Z,40.60
